createdAt,value
2019-01-23T00:01:23.176Z,61.57
2019-01-23T00:03:50.781Z,62.63
2019-01-23T00:06:18.324Z,66.00
2019-01-23T00:08:45.878Z,67.03
2019-01-23T00:11:13.640Z,68.30
2019-01-23T00:13:41.208Z,61.93
2019-01-23T00:16:08.756Z,61.63
2019-01-23T00:18:36.344Z,61.50
2019-01-23T00:21:03.880Z,61.57
2019-01-23T00:23:31.456Z,61.57
2019-01-23T00:25:59.033Z,62.50
2019-01-23T00:28:26.649Z,54.93
2019-01-23T00:30:54.188Z,58.57
2019-01-23T00:33:21.724Z,56.03
2019-01-23T00:35:49.305Z,57.83
2019-01-23T00:38:16.864Z,56.57
2019-01-23T00:40:44.368Z,56.07
2019-01-23T00:43:11.955Z,54.77
2019-01-23T00:45:39.515Z,56.70
2019-01-23T00:48:07.098Z,55.60
2019-01-23T00:50:34.584Z,55.90
2019-01-23T00:53:02.187Z,57.83
2019-01-23T00:55:29.810Z,60.67
2019-01-23T00:57:57.352Z,56.17
2019-01-23T01:00:25.544Z,52.40
2019-01-23T01:02:53.385Z,53.30
2019-01-23T01:05:21.624Z,47.30
2019-01-23T01:07:49.387Z,46.80
2019-01-23T01:10:17.611Z,45.67
2019-01-23T01:12:45.146Z,44.93
2019-01-23T01:15:13.702Z,40.40
2019-01-23T01:17:41.362Z,40.77
2019-01-23T01:20:09.738Z,42.97
2019-01-23T01:22:37.298Z,39.93
2019-01-23T01:25:07.013Z,42.43
2019-01-23T01:27:34.556Z,41.17
2019-01-23T01:30:02.123Z,38.03
2019-01-23T01:32:29.648Z,36.70
2019-01-23T01:34:57.142Z,38.40
2019-01-23T01:37:24.690Z,35.30
2019-01-23T01:39:52.179Z,35.97
2019-01-23T01:42:19.682Z,35.77
2019-01-23T01:44:47.218Z,35.00
2019-01-23T01:47:14.798Z,35.13
2019-01-23T01:49:42.294Z,34.90
2019-01-23T01:52:09.819Z,30.97
2019-01-23T01:54:37.381Z,31.53
2019-01-23T01:57:04.890Z,31.80
2019-01-23T01:59:32.458Z,33.50
2019-01-23T02:02:00.006Z,30.23
2019-01-23T02:04:27.516Z,31.90
2019-01-23T02:06:54.998Z,32.17
2019-01-23T02:09:22.538Z,29.73
2019-01-23T02:11:50.050Z,31.43
2019-01-23T02:14:17.599Z,30.17
2019-01-23T02:16:45.139Z,30.77
2019-01-23T02:19:12.695Z,32.30
2019-01-23T02:21:40.185Z,29.97
2019-01-23T02:24:07.736Z,26.80
2019-01-23T02:26:35.222Z,31.33
2019-01-23T02:29:09.337Z,31.97
2019-01-23T02:31:32.136Z,28.13
2019-01-23T02:33:59.641Z,29.67
2019-01-23T02:36:27.139Z,26.73
2019-01-23T02:38:54.661Z,26.83
2019-01-23T02:41:22.169Z,29.43
2019-01-23T02:43:49.653Z,29.63
2019-01-23T02:46:17.193Z,27.70
2019-01-23T02:48:44.697Z,28.67
2019-01-23T02:51:12.194Z,28.73
2019-01-23T02:53:39.739Z,29.17
2019-01-23T02:56:07.231Z,29.60
2019-01-23T02:58:34.717Z,28.17
2019-01-23T03:01:02.261Z,30.20
2019-01-23T03:03:29.765Z,26.63
2019-01-23T03:05:57.258Z,27.73
2019-01-23T03:08:24.778Z,28.23
2019-01-23T03:10:52.318Z,26.87
2019-01-23T03:13:19.813Z,27.07
2019-01-23T03:15:47.375Z,27.90
2019-01-23T03:18:14.907Z,27.40
2019-01-23T03:20:42.394Z,26.97
2019-01-23T03:23:09.911Z,26.13
2019-01-23T03:25:37.461Z,23.77
2019-01-23T03:28:04.970Z,26.70
2019-01-23T03:30:32.483Z,25.70
2019-01-23T03:33:00.003Z,26.93
2019-01-23T03:35:27.568Z,27.70
2019-01-23T03:37:55.046Z,25.50
2019-01-23T03:40:22.541Z,27.67
2019-01-23T03:42:50.067Z,22.13
2019-01-23T03:45:17.809Z,27.00
2019-01-23T03:47:45.307Z,24.70
2019-01-23T03:50:14.825Z,26.63
2019-01-23T03:52:42.359Z,22.37
2019-01-23T03:55:10.282Z,26.33
2019-01-23T03:57:37.765Z,25.13
2019-01-23T04:00:07.146Z,26.20
2019-01-23T04:02:34.663Z,25.63
2019-01-23T04:05:02.161Z,25.07
2019-01-23T04:07:29.714Z,26.50
2019-01-23T04:09:57.296Z,24.03
2019-01-23T04:12:24.779Z,24.57
2019-01-23T04:14:52.306Z,25.07
2019-01-23T04:17:19.858Z,25.90
2019-01-23T04:19:47.354Z,20.67
2019-01-23T04:22:14.890Z,26.03
2019-01-23T04:24:42.366Z,26.70
2019-01-23T04:27:09.865Z,27.33
2019-01-23T04:29:39.787Z,27.23
2019-01-23T04:32:06.691Z,23.73
2019-01-23T04:34:34.189Z,26.17
2019-01-23T04:37:01.800Z,24.00
2019-01-23T04:39:29.281Z,24.30
2019-01-23T04:41:56.764Z,27.90
2019-01-23T04:44:24.389Z,26.03
2019-01-23T04:46:51.886Z,25.03
2019-01-23T04:49:19.382Z,27.50
2019-01-23T04:51:54.349Z,28.40
2019-01-23T04:54:21.886Z,26.37
2019-01-23T04:56:49.357Z,23.83
2019-01-23T04:59:16.857Z,24.77
2019-01-23T05:01:44.359Z,25.97
2019-01-23T05:04:11.862Z,27.20
2019-01-23T05:06:39.409Z,26.07
2019-01-23T05:09:08.290Z,26.33
2019-01-23T05:11:35.929Z,25.83
2019-01-23T05:14:04.194Z,25.60
2019-01-23T05:16:31.747Z,25.83
2019-01-23T05:18:59.239Z,26.93
2019-01-23T05:21:26.777Z,26.77
2019-01-23T05:23:54.287Z,27.47
2019-01-23T05:26:21.778Z,27.80
2019-01-23T05:28:49.281Z,28.03
2019-01-23T05:31:16.831Z,25.80
2019-01-23T05:33:44.343Z,26.40
2019-01-23T05:36:11.849Z,28.13
2019-01-23T05:38:39.373Z,25.63
2019-01-23T05:41:06.884Z,28.77
2019-01-23T05:43:34.432Z,27.37
2019-01-23T05:46:01.970Z,23.57
2019-01-23T05:48:29.537Z,26.30
2019-01-23T05:50:57.087Z,26.73
2019-01-23T05:53:24.584Z,27.27
2019-01-23T05:55:52.086Z,24.87
2019-01-23T05:58:19.615Z,23.97
2019-01-23T06:00:47.100Z,25.17
2019-01-23T06:03:14.582Z,25.97
2019-01-23T06:05:42.121Z,22.07
2019-01-23T06:08:09.658Z,25.27
2019-01-23T06:10:37.122Z,24.33
2019-01-23T06:13:05.899Z,26.77
2019-01-23T06:15:33.485Z,24.50
2019-01-23T06:18:02.738Z,27.27
2019-01-23T06:20:30.613Z,26.37
2019-01-23T06:22:58.109Z,27.90
2019-01-23T06:25:25.673Z,29.43
2019-01-23T06:27:53.202Z,29.57
2019-01-23T06:30:22.988Z,31.47
2019-01-23T06:32:50.523Z,26.20
2019-01-23T06:35:18.024Z,28.43
2019-01-23T06:37:45.959Z,27.40
2019-01-23T06:40:15.087Z,28.20
2019-01-23T06:42:42.561Z,28.50
2019-01-23T06:45:11.842Z,27.93
2019-01-23T06:47:39.398Z,27.20
2019-01-23T06:50:09.887Z,27.70
2019-01-23T06:52:37.397Z,25.93
2019-01-23T06:55:05.529Z,25.70
2019-01-23T06:57:33.021Z,27.27
2019-01-23T07:00:00.501Z,25.73
2019-01-23T07:02:28.017Z,24.30
2019-01-23T07:04:55.517Z,24.47
2019-01-23T07:07:23.011Z,25.03
2019-01-23T07:09:50.550Z,25.77
2019-01-23T07:12:18.089Z,24.43
2019-01-23T07:14:45.585Z,26.30
2019-01-23T07:17:13.128Z,27.20
2019-01-23T07:19:40.665Z,26.73
2019-01-23T07:22:08.153Z,27.87
2019-01-23T07:24:35.642Z,27.60
2019-01-23T07:27:03.449Z,29.03
2019-01-23T07:29:30.989Z,32.43
2019-01-23T07:31:58.466Z,30.03
2019-01-23T07:34:25.946Z,29.40
2019-01-23T07:36:53.492Z,24.83
2019-01-23T07:39:20.973Z,27.27
2019-01-23T07:41:48.555Z,30.17
2019-01-23T07:44:16.073Z,27.63
2019-01-23T07:46:43.551Z,30.57
2019-01-23T07:49:11.095Z,28.07
2019-01-23T07:51:38.593Z,23.63
2019-01-23T07:54:06.069Z,25.80
2019-01-23T07:56:33.600Z,28.20
2019-01-23T07:59:01.118Z,27.17
2019-01-23T08:01:28.617Z,28.83
2019-01-23T08:03:56.157Z,25.33
2019-01-23T08:06:23.634Z,27.00
2019-01-23T08:08:51.139Z,28.27
2019-01-23T08:11:18.761Z,28.40
2019-01-23T08:13:46.380Z,28.63
2019-01-23T08:16:13.941Z,28.47
2019-01-23T08:18:41.471Z,25.67
2019-01-23T08:21:09.081Z,27.83
2019-01-23T08:23:36.605Z,26.53
2019-01-23T08:26:04.151Z,27.13
2019-01-23T08:28:31.662Z,27.13
2019-01-23T08:30:59.209Z,27.33
2019-01-23T08:33:26.706Z,26.87
2019-01-23T08:35:54.207Z,24.13
2019-01-23T08:38:21.780Z,21.03
2019-01-23T08:40:49.279Z,19.87
2019-01-23T08:43:16.756Z,24.37
2019-01-23T08:45:44.312Z,25.97
2019-01-23T08:48:11.805Z,22.97
2019-01-23T08:50:41.871Z,21.17
2019-01-23T08:53:09.594Z,23.67
2019-01-23T08:55:37.161Z,24.97
2019-01-23T08:58:05.509Z,20.93
2019-01-23T09:00:34.192Z,23.47
2019-01-23T09:03:01.899Z,22.07
2019-01-23T09:05:29.431Z,25.50
2019-01-23T09:07:56.965Z,16.33
2019-01-23T09:10:24.501Z,22.60
2019-01-23T09:12:52.065Z,23.10
2019-01-23T09:15:19.786Z,23.33
2019-01-23T09:17:47.324Z,25.47
2019-01-23T09:20:16.107Z,20.60
2019-01-23T09:22:43.630Z,18.33
2019-01-23T09:25:12.946Z,22.03
2019-01-23T09:27:40.517Z,21.03
2019-01-23T09:30:24.638Z,21.37
2019-01-23T09:33:40.194Z,21.00
2019-01-23T09:36:45.213Z,22.03
2019-01-23T09:39:38.313Z,25.73
2019-01-23T09:42:52.902Z,22.83
2019-01-23T09:45:40.699Z,19.73
2019-01-23T09:48:54.301Z,19.90
2019-01-23T09:52:06.986Z,23.67
2019-01-23T09:54:34.537Z,22.37
2019-01-23T09:57:02.098Z,22.83
2019-01-23T09:59:29.628Z,19.53
2019-01-23T10:01:57.239Z,22.20
2019-01-23T10:04:24.726Z,26.00
2019-01-23T10:06:52.224Z,17.77
2019-01-23T10:09:19.781Z,22.53
2019-01-23T10:11:47.329Z,19.97
2019-01-23T10:14:14.828Z,23.53
2019-01-23T10:16:42.606Z,19.63
2019-01-23T10:19:13.627Z,21.07
2019-01-23T10:21:41.328Z,20.90
2019-01-23T10:24:09.105Z,21.73
2019-01-23T10:26:36.822Z,22.93
2019-01-23T10:29:04.681Z,25.60
2019-01-23T10:31:34.089Z,22.43
2019-01-23T10:34:01.888Z,20.80
2019-01-23T10:36:29.704Z,20.57
2019-01-23T10:38:57.442Z,22.00
2019-01-23T10:41:25.897Z,30.90
2019-01-23T10:43:53.617Z,21.23
2019-01-23T10:46:21.362Z,23.80
2019-01-23T10:48:49.144Z,23.33
2019-01-23T10:51:16.856Z,17.30
2019-01-23T10:53:44.666Z,19.63
2019-01-23T10:56:12.429Z,21.40
2019-01-23T10:58:40.259Z,19.23
2019-01-23T11:01:13.336Z,18.73
2019-01-23T11:03:37.668Z,17.63
2019-01-23T11:06:05.543Z,18.63
2019-01-23T11:08:33.371Z,22.83
2019-01-23T11:11:01.154Z,21.20
2019-01-23T11:13:28.885Z,19.87
2019-01-23T11:15:57.598Z,19.77
2019-01-23T11:18:25.494Z,20.80
2019-01-23T11:20:53.323Z,14.60
2019-01-23T11:23:21.083Z,17.73
2019-01-23T11:25:48.858Z,18.80
2019-01-23T11:28:16.607Z,18.23
2019-01-23T11:30:44.426Z,17.27
2019-01-23T11:33:12.515Z,17.33
2019-01-23T11:35:40.339Z,16.93
2019-01-23T11:38:08.098Z,17.47
2019-01-23T11:40:35.850Z,18.57
2019-01-23T11:43:06.422Z,19.13
2019-01-23T11:45:34.258Z,17.17
2019-01-23T11:48:02.051Z,19.67
2019-01-23T11:50:29.949Z,22.93
2019-01-23T11:52:58.169Z,18.53
2019-01-23T11:55:25.967Z,18.10
2019-01-23T11:57:53.884Z,18.37
2019-01-23T12:00:22.918Z,15.47
2019-01-23T12:02:51.929Z,19.23
2019-01-23T12:05:21.103Z,16.83
2019-01-23T12:07:49.137Z,17.37
2019-01-23T12:10:18.356Z,16.33
2019-01-23T12:12:46.212Z,17.70
2019-01-23T12:15:16.292Z,17.43
2019-01-23T12:17:44.122Z,17.60
2019-01-23T12:20:12.489Z,17.37
2019-01-23T12:22:40.390Z,16.23
2019-01-23T12:25:08.550Z,15.73
2019-01-23T12:27:36.279Z,15.67
2019-01-23T12:30:07.488Z,16.70
2019-01-23T12:32:35.233Z,15.10
2019-01-23T12:35:03.436Z,15.70
2019-01-23T12:37:31.172Z,14.27
2019-01-23T12:39:58.932Z,17.83
2019-01-23T12:42:26.734Z,12.60
2019-01-23T12:44:54.560Z,13.33
2019-01-23T12:47:22.292Z,14.07
2019-01-23T12:49:50.182Z,12.17
2019-01-23T12:52:17.963Z,12.77
2019-01-23T12:54:45.638Z,13.43
2019-01-23T12:57:13.384Z,12.60
2019-01-23T12:59:41.266Z,9.80
2019-01-23T13:02:09.795Z,13.33
2019-01-23T13:04:37.659Z,12.40
2019-01-23T13:07:05.511Z,12.23
2019-01-23T13:09:33.323Z,10.47
2019-01-23T13:12:01.072Z,12.33
2019-01-23T13:14:28.886Z,15.50
2019-01-23T13:16:56.711Z,14.17
2019-01-23T13:19:24.545Z,19.10
2019-01-23T13:21:52.379Z,11.93
2019-01-23T13:24:20.092Z,12.93
2019-01-23T13:26:47.908Z,11.17
2019-01-23T13:29:15.657Z,11.63
2019-01-23T13:31:49.085Z,11.33
2019-01-23T13:34:13.330Z,12.50
2019-01-23T13:36:41.173Z,12.10
2019-01-23T13:39:13.344Z,11.23
2019-01-23T13:41:41.118Z,11.70
2019-01-23T13:44:08.824Z,12.83
2019-01-23T13:46:36.576Z,13.50
2019-01-23T13:49:04.416Z,13.17
2019-01-23T13:51:32.202Z,14.10
2019-01-23T13:53:59.924Z,14.13
2019-01-23T13:56:27.627Z,13.27
2019-01-23T13:58:55.414Z,14.47
2019-01-23T14:01:23.180Z,14.17
2019-01-23T14:03:50.916Z,13.63
2019-01-23T14:06:18.684Z,13.77
2019-01-23T14:08:46.395Z,12.43
2019-01-23T14:11:14.310Z,15.27
2019-01-23T14:13:42.084Z,13.10
2019-01-23T14:16:10.004Z,12.67
2019-01-23T14:18:37.734Z,13.93
2019-01-23T14:21:05.483Z,12.47
2019-01-23T14:23:33.288Z,12.07
2019-01-23T14:26:00.998Z,10.70
2019-01-23T14:28:28.752Z,13.23
2019-01-23T14:30:56.516Z,13.20
2019-01-23T14:33:24.261Z,12.93
2019-01-23T14:35:52.019Z,13.47
2019-01-23T14:38:20.007Z,13.83
2019-01-23T14:40:47.755Z,14.77
2019-01-23T14:43:15.920Z,14.57
2019-01-23T14:45:43.742Z,15.27
2019-01-23T14:48:11.458Z,13.83
2019-01-23T14:50:39.207Z,13.97
2019-01-23T14:53:07.022Z,15.63
2019-01-23T14:55:34.754Z,17.40
2019-01-23T14:58:02.706Z,16.63
2019-01-23T15:00:30.922Z,18.53
2019-01-23T15:02:58.664Z,20.50
2019-01-23T15:05:26.403Z,20.50
2019-01-23T15:07:54.176Z,18.20
2019-01-23T15:10:24.014Z,20.17
2019-01-23T15:12:52.014Z,17.77
2019-01-23T15:15:19.856Z,22.27
2019-01-23T15:17:47.694Z,20.73
2019-01-23T15:20:27.862Z,21.10
2019-01-23T15:22:55.609Z,22.40
2019-01-23T15:25:23.478Z,23.67
2019-01-23T15:27:51.315Z,22.77
2019-01-23T15:30:20.596Z,21.73
2019-01-23T15:32:48.518Z,22.47
2019-01-23T15:35:18.438Z,20.70
2019-01-23T15:37:46.318Z,20.63
2019-01-23T15:40:19.654Z,20.87
2019-01-23T15:42:47.649Z,19.83
2019-01-23T15:45:15.827Z,19.30
2019-01-23T15:47:43.561Z,19.60
2019-01-23T15:50:13.874Z,19.83
2019-01-23T15:52:41.686Z,20.83
2019-01-23T15:55:11.555Z,19.10
2019-01-23T15:57:39.409Z,22.13
2019-01-23T16:00:14.100Z,20.83
2019-01-23T16:02:42.098Z,20.07
2019-01-23T16:05:10.101Z,21.23
2019-01-23T16:07:37.906Z,22.13
2019-01-23T16:10:06.561Z,20.87
2019-01-23T16:12:34.336Z,22.53
2019-01-23T16:15:02.163Z,22.57
2019-01-23T16:17:29.927Z,22.63
2019-01-23T16:19:57.718Z,22.13
2019-01-23T16:22:25.519Z,23.93
2019-01-23T16:24:53.265Z,23.33
2019-01-23T16:27:21.062Z,23.20
2019-01-23T16:29:48.834Z,24.67
2019-01-23T16:32:16.617Z,22.07
2019-01-23T16:34:44.455Z,43.93
2019-01-23T16:37:12.360Z,29.30
2019-01-23T16:39:40.102Z,25.80
2019-01-23T16:42:07.940Z,32.30
2019-01-23T16:44:35.711Z,24.37
2019-01-23T16:47:06.815Z,26.07
2019-01-23T16:49:37.951Z,23.20
2019-01-23T16:52:05.712Z,21.30
2019-01-23T16:54:35.088Z,37.60
2019-01-23T16:57:02.833Z,27.67
2019-01-23T16:59:30.550Z,30.40
2019-01-23T17:01:58.301Z,25.47
2019-01-23T17:04:26.032Z,34.67
2019-01-23T17:06:53.798Z,28.73
2019-01-23T17:09:21.520Z,26.30
2019-01-23T17:11:49.280Z,29.70
2019-01-23T17:14:17.030Z,27.73
2019-01-23T17:16:44.824Z,28.13
2019-01-23T17:19:12.555Z,22.10
2019-01-23T17:21:40.411Z,17.40
2019-01-23T17:24:08.176Z,16.77
2019-01-23T17:26:36.006Z,24.50
2019-01-23T17:29:04.891Z,24.30
2019-01-23T17:31:32.587Z,18.73
2019-01-23T17:34:00.326Z,19.33
2019-01-23T17:36:28.158Z,26.33
2019-01-23T17:38:55.874Z,23.87
2019-01-23T17:41:23.581Z,17.80
2019-01-23T17:43:51.766Z,33.70
2019-01-23T17:46:19.516Z,38.13
2019-01-23T17:48:47.411Z,43.23
2019-01-23T17:51:15.033Z,46.47
2019-01-23T17:53:42.587Z,24.33
2019-01-23T17:56:10.179Z,24.57
2019-01-23T17:58:38.426Z,24.57
2019-01-23T18:01:07.811Z,31.53
2019-01-23T18:03:35.632Z,27.90
2019-01-23T18:06:03.384Z,28.03
2019-01-23T18:08:31.048Z,29.70
2019-01-23T18:10:58.593Z,26.00
2019-01-23T18:13:26.501Z,25.17
2019-01-23T18:15:58.982Z,41.50
2019-01-23T18:18:27.066Z,43.90
2019-01-23T18:20:54.646Z,31.17
2019-01-23T18:23:22.214Z,28.20
2019-01-23T18:25:49.743Z,32.00
2019-01-23T18:28:17.608Z,32.10
2019-01-23T18:31:15.930Z,32.43
2019-01-23T18:34:02.900Z,34.97
2019-01-23T18:37:15.670Z,32.77
2019-01-23T18:40:32.826Z,28.83
2019-01-23T18:43:19.638Z,33.50
2019-01-23T18:46:08.971Z,33.57
2019-01-23T18:49:20.256Z,24.37
2019-01-23T18:52:10.805Z,23.27
2019-01-23T18:54:38.374Z,21.00
2019-01-23T18:57:07.525Z,21.27
2019-01-23T18:59:35.160Z,18.77
2019-01-23T19:02:02.837Z,17.07
2019-01-23T19:04:30.393Z,16.80
2019-01-23T19:06:58.010Z,14.07
2019-01-23T19:09:25.556Z,15.00
2019-01-23T19:11:53.095Z,12.87
2019-01-23T19:14:24.424Z,13.03
2019-01-23T19:16:50.034Z,10.90
2019-01-23T19:19:17.816Z,10.93
2019-01-23T19:21:45.504Z,11.23
2019-01-23T19:24:13.084Z,28.47
2019-01-23T19:26:40.644Z,11.63
2019-01-23T19:29:08.221Z,10.47
2019-01-23T19:31:35.780Z,13.50
2019-01-23T19:34:03.346Z,15.13
2019-01-23T19:36:30.919Z,13.23
2019-01-23T19:38:58.502Z,11.20
2019-01-23T19:41:26.194Z,9.43
2019-01-23T19:43:53.796Z,13.57
2019-01-23T19:46:21.451Z,11.50
2019-01-23T19:48:48.986Z,12.73
2019-01-23T19:51:19.159Z,13.60
2019-01-23T19:53:46.710Z,13.33
2019-01-23T19:56:14.269Z,12.87
2019-01-23T19:58:41.851Z,12.47
2019-01-23T20:01:09.483Z,14.33
2019-01-23T20:03:37.115Z,12.93
2019-01-23T20:06:04.658Z,14.67
2019-01-23T20:08:32.276Z,11.63
2019-01-23T20:10:59.783Z,10.27
2019-01-23T20:13:27.330Z,14.00
2019-01-23T20:15:54.922Z,13.10
2019-01-23T20:18:22.443Z,15.50
2019-01-23T20:20:50.651Z,17.50
2019-01-23T20:23:18.176Z,12.20
2019-01-23T20:25:45.704Z,10.70
2019-01-23T20:28:13.555Z,11.70
2019-01-23T20:30:43.051Z,10.00
2019-01-23T20:33:10.602Z,9.80
2019-01-23T20:35:38.240Z,11.17
2019-01-23T20:38:05.818Z,13.07
2019-01-23T20:40:33.410Z,12.70
2019-01-23T20:43:00.999Z,11.10
2019-01-23T20:45:28.606Z,12.30
2019-01-23T20:47:56.145Z,13.73
2019-01-23T20:50:26.243Z,8.70
2019-01-23T20:52:53.770Z,16.53
2019-01-23T20:55:21.317Z,15.47
2019-01-23T20:57:48.999Z,14.43
2019-01-23T21:00:19.005Z,12.93
2019-01-23T21:02:46.606Z,16.07
2019-01-23T21:05:14.623Z,12.70
2019-01-23T21:07:42.226Z,9.77
2019-01-23T21:10:11.029Z,12.13
2019-01-23T21:12:38.622Z,11.40
2019-01-23T21:15:06.242Z,10.97
2019-01-23T21:17:33.828Z,10.83
2019-01-23T21:20:01.475Z,13.03
2019-01-23T21:22:29.076Z,11.57
2019-01-23T21:24:56.768Z,14.27
2019-01-23T21:27:25.503Z,14.27
2019-01-23T21:29:53.099Z,12.40
2019-01-23T21:32:20.722Z,15.10
2019-01-23T21:34:48.270Z,13.43
2019-01-23T21:37:15.860Z,13.83
2019-01-23T21:39:43.427Z,15.40
2019-01-23T21:42:10.954Z,14.80
2019-01-23T21:44:38.474Z,17.40
2019-01-23T21:47:06.065Z,16.43
2019-01-23T21:49:33.603Z,16.70
2019-01-23T21:52:01.232Z,16.77
2019-01-23T21:54:29.674Z,18.57
2019-01-23T21:56:57.365Z,18.13
2019-01-23T21:59:25.009Z,15.23
2019-01-23T22:01:52.548Z,13.83
2019-01-23T22:04:20.139Z,14.93
2019-01-23T22:06:47.796Z,16.27
2019-01-23T22:09:15.379Z,15.70
2019-01-23T22:11:43.744Z,16.00
2019-01-23T22:14:11.574Z,14.30
2019-01-23T22:16:39.173Z,16.03
2019-01-23T22:19:06.688Z,13.77
2019-01-23T22:21:34.249Z,14.90
2019-01-23T22:24:01.790Z,12.80
2019-01-23T22:26:29.337Z,13.73
2019-01-23T22:28:56.923Z,18.50
2019-01-23T22:31:24.451Z,19.93
2019-01-23T22:33:56.077Z,19.23
2019-01-23T22:36:21.329Z,18.20
2019-01-23T22:38:48.864Z,17.70
2019-01-23T22:41:16.418Z,17.77
2019-01-23T22:43:43.941Z,18.63
2019-01-23T22:46:15.205Z,14.37
2019-01-23T22:48:46.111Z,16.27
2019-01-23T22:51:17.450Z,15.50
2019-01-23T22:53:44.966Z,18.37
2019-01-23T22:56:12.481Z,11.83
2019-01-23T22:58:39.985Z,13.07
2019-01-23T23:01:21.573Z,18.33
2019-01-23T23:03:49.055Z,19.37
2019-01-23T23:06:16.565Z,33.63
2019-01-23T23:08:44.089Z,30.80
2019-01-23T23:11:11.578Z,16.60
2019-01-23T23:13:39.173Z,14.10
2019-01-23T23:16:06.702Z,15.97
2019-01-23T23:18:34.202Z,13.50
2019-01-23T23:21:01.719Z,13.60
2019-01-23T23:23:29.233Z,12.53
2019-01-23T23:25:56.737Z,13.33
2019-01-23T23:28:26.030Z,13.80
2019-01-23T23:30:53.694Z,10.67
2019-01-23T23:33:21.259Z,12.47
2019-01-23T23:35:48.819Z,13.63
2019-01-23T23:38:16.288Z,14.73
2019-01-23T23:40:43.793Z,13.50
2019-01-23T23:43:11.310Z,15.47
2019-01-23T23:45:38.835Z,15.57
2019-01-23T23:48:06.340Z,15.47
2019-01-23T23:50:33.839Z,13.30
2019-01-23T23:53:01.395Z,11.90
2019-01-23T23:55:28.931Z,11.20
2019-01-23T23:57:56.457Z,11.77
